Time;durP1;ratioP1;P1;durP2;ratioP2;P2;SDS_P1;SDS_P2;PMS_P1;PMS_P2;Temp;Humidity;BMP_temperature;BMP_pressure;BME280_temperature;BME280_humidity;BME280_pressure;Samples;Min_cycle;Max_cycle;Signal;HPM_P1;HPM_P2
2021/06/17 00:00:06;;;;;;;1.20;0.67;;;14.50;99.60;;;;;;5092945;28;20182;-74
2021/06/17 00:02:34;;;;;;;3.43;1.10;;;14.60;99.40;;;;;;5093320;28;20217;-72
2021/06/17 00:05:01;;;;;;;3.93;1.77;;;14.60;99.30;;;;;;5093631;28;20177;-68
2021/06/17 00:07:29;;;;;;;1.40;0.90;;;14.70;99.10;;;;;;5093528;28;20652;-69
2021/06/17 00:09:56;;;;;;;4.20;0.87;;;14.70;99.10;;;;;;5091467;28;20189;-65
2021/06/17 00:12:24;;;;;;;6.53;1.10;;;14.80;99.40;;;;;;5092255;28;20193;-68
2021/06/17 00:14:51;;;;;;;2.07;1.00;;;15.00;99.30;;;;;;5091715;28;20728;-67
2021/06/17 00:17:19;;;;;;;1.53;1.07;;;15.00;98.60;;;;;;5092211;28;20181;-71
2021/06/17 00:19:47;;;;;;;2.53;0.90;;;15.10;98.20;;;;;;5092177;28;20640;-66
2021/06/17 00:22:16;;;;;;;3.10;1.10;;;15.10;98.30;;;;;;5091821;28;20214;-65
2021/06/17 00:24:44;;;;;;;3.33;1.00;;;15.10;97.80;;;;;;5087740;28;20183;-66
2021/06/17 00:27:11;;;;;;;2.07;0.73;;;15.20;97.80;;;;;;5092163;28;20214;-67
2021/06/17 00:29:39;;;;;;;2.43;1.00;;;15.10;97.30;;;;;;5093364;28;20209;-67
2021/06/17 00:32:07;;;;;;;1.98;0.90;;;15.10;97.10;;;;;;5084427;28;976666;-68
2021/06/17 00:34:34;;;;;;;1.37;0.90;;;15.20;97.10;;;;;;5092672;28;20182;-65
2021/06/17 00:37:02;;;;;;;2.70;0.83;;;15.20;96.80;;;;;;5086847;28;20661;-68
2021/06/17 00:39:29;;;;;;;3.83;0.80;;;15.30;97.20;;;;;;5093342;28;20214;-69
2021/06/17 00:41:57;;;;;;;1.03;0.70;;;15.40;96.90;;;;;;5092700;28;20684;-69
2021/06/17 00:44:24;;;;;;;1.13;0.90;;;15.50;96.80;;;;;;5093326;28;20186;-70
2021/06/17 00:46:52;;;;;;;1.00;0.70;;;15.70;96.70;;;;;;5093053;28;20185;-69
2021/06/17 00:49:19;;;;;;;2.47;0.90;;;15.70;96.00;;;;;;5092484;28;20189;-70
2021/06/17 00:51:46;;;;;;;4.13;1.10;;;15.70;95.80;;;;;;5093982;28;20269;-69
2021/06/17 00:54:31;;;;;;;3.97;1.23;;;15.80;95.00;;;;;;5093997;28;20189;-68
2021/06/17 00:57:06;;;;;;;2.73;0.63;;;15.80;95.30;;;;;;5087108;28;20587;-68
2021/06/17 00:59:34;;;;;;;2.47;0.93;;;16.00;95.60;;;;;;5092758;28;20178;-68
2021/06/17 01:02:02;;;;;;;1.27;0.60;;;16.00;93.90;;;;;;5088407;28;20655;-71
2021/06/17 01:04:30;;;;;;;1.13;0.80;;;16.10;94.00;;;;;;5091144;28;20559;-70
2021/06/17 01:06:58;;;;;;;1.73;0.70;;;16.00;94.10;;;;;;5089291;28;20187;-72
2021/06/17 01:09:50;;;;;;;0.93;0.50;;;16.10;93.90;;;;;;5092614;28;20202;-68
2021/06/17 01:12:33;;;;;;;1.47;0.80;;;16.20;93.30;;;;;;5087772;28;20232;-65
2021/06/17 01:15:05;;;;;;;2.17;0.70;;;16.30;93.80;;;;;;5091958;28;20178;-68
2021/06/17 01:17:38;;;;;;;1.07;0.70;;;16.50;93.30;;;;;;5090893;28;20714;-66
2021/06/17 01:20:13;;;;;;;4.00;0.60;;;16.60;93.20;;;;;;5089779;28;20177;-69
2021/06/17 01:23:06;;;;;;;2.00;0.70;;;16.80;92.60;;;;;;5091477;28;20211;-68
2021/06/17 01:25:46;;;;;;;2.07;0.70;;;16.70;91.50;;;;;;5089194;28;20190;-67
2021/06/17 01:28:19;;;;;;;1.27;0.70;;;16.80;90.00;;;;;;5092330;28;20261;-66
2021/06/17 01:31:04;;;;;;;1.67;0.70;;;16.80;90.70;;;;;;5091834;28;20229;-68
2021/06/17 01:33:38;;;;;;;0.67;0.50;;;17.00;90.00;;;;;;5091909;28;20319;-68
2021/06/17 01:36:11;;;;;;;1.13;0.70;;;16.90;90.00;;;;;;5092578;28;20181;-67
2021/06/17 01:38:39;;;;;;;2.47;0.80;;;16.90;86.50;;;;;;5092093;28;20186;-67
2021/06/17 01:41:08;;;;;;;2.77;1.00;;;17.00;87.70;;;;;;5089589;28;20182;-70
2021/06/17 01:43:36;;;;;;;4.17;0.97;;;17.00;87.10;;;;;;5090777;28;20248;-69
2021/06/17 01:46:04;;;;;;;2.33;0.80;;;17.20;87.10;;;;;;5090319;28;20185;-66
2021/06/17 01:48:33;;;;;;;3.17;0.80;;;17.00;84.60;;;;;;5091564;28;20196;-68
2021/06/17 01:51:00;;;;;;;1.07;0.60;;;17.10;86.10;;;;;;5092217;28;20191;-68
2021/06/17 01:53:29;;;;;;;4.33;0.90;;;17.20;85.50;;;;;;5091727;28;20590;-65
2021/06/17 01:55:59;;;;;;;2.47;0.80;;;17.20;82.90;;;;;;5088480;28;20204;-67
2021/06/17 01:58:28;;;;;;;3.83;1.17;;;17.10;82.20;;;;;;5092342;28;20181;-68
2021/06/17 02:00:57;;;;;;;2.95;0.70;;;17.20;81.60;;;;;;5091969;28;20195;-70
2021/06/17 02:03:26;;;;;;;6.13;0.77;;;17.30;81.50;;;;;;5088015;28;20190;-67
2021/06/17 02:05:54;;;;;;;1.37;0.70;;;17.40;83.40;;;;;;5077854;28;20189;-65
2021/06/17 02:08:23;;;;;;;1.10;0.57;;;17.40;81.60;;;;;;5072287;28;20229;-68
2021/06/17 02:10:51;;;;;;;3.37;1.60;;;17.30;79.70;;;;;;5071045;28;20625;-66
2021/06/17 02:13:20;;;;;;;1.90;0.90;;;17.40;79.60;;;;;;5079680;28;20178;-67
2021/06/17 02:15:49;;;;;;;2.80;0.90;;;17.50;79.60;;;;;;5092504;28;20697;-71
2021/06/17 02:18:24;;;;;;;2.20;1.10;;;17.50;79.90;;;;;;5092221;28;20635;-69
2021/06/17 02:20:54;;;;;;;1.20;0.60;;;17.60;78.90;;;;;;5092512;28;20283;-66
2021/06/17 02:23:23;;;;;;;1.27;0.63;;;17.80;80.20;;;;;;5083124;28;20178;-73
2021/06/17 02:25:54;;;;;;;0.97;0.60;;;17.90;78.70;;;;;;5090605;28;20231;-70
2021/06/17 02:28:24;;;;;;;1.77;0.60;;;18.00;80.50;;;;;;5092209;28;20509;-66
2021/06/17 02:30:57;;;;;;;1.53;0.70;;;18.00;78.50;;;;;;5092142;28;20188;-71
2021/06/17 02:33:26;;;;;;;1.33;0.60;;;18.10;77.90;;;;;;5092333;28;20325;-67
2021/06/17 02:35:56;;;;;;;2.27;0.70;;;18.00;77.60;;;;;;5091628;28;20192;-68
2021/06/17 02:38:36;;;;;;;1.40;0.77;;;17.80;75.70;;;;;;5090021;28;20190;-68
2021/06/17 02:41:08;;;;;;;3.33;0.70;;;17.90;78.20;;;;;;5092121;28;20184;-67
2021/06/17 02:43:39;;;;;;;3.37;0.90;;;17.80;76.10;;;;;;5078332;28;20644;-70
2021/06/17 02:46:06;;;;;;;0.97;0.60;;;17.70;76.60;;;;;;5092419;28;20668;-70
2021/06/17 02:48:35;;;;;;;1.97;0.67;;;17.50;76.80;;;;;;5090895;28;20285;-71
2021/06/17 02:51:03;;;;;;;3.30;0.70;;;17.60;77.60;;;;;;5092012;28;20232;-73
2021/06/17 02:53:33;;;;;;;0.97;0.47;;;17.70;77.40;;;;;;5091729;28;20273;-77
2021/06/17 02:56:06;;;;;;;2.50;0.70;;;17.80;77.10;;;;;;5092357;28;20218;-69
2021/06/17 02:58:59;;;;;;;1.33;0.60;;;17.60;77.20;;;;;;5092006;28;20638;-76
2021/06/17 03:01:53;;;;;;;1.33;0.50;;;17.50;76.70;;;;;;5092315;28;20272;-70
2021/06/17 03:05:01;;;;;;;1.07;0.70;;;17.50;78.70;;;;;;5091788;28;20175;-72
2021/06/17 03:07:36;;;;;;;2.67;0.80;;;17.70;79.20;;;;;;5044789;28;20186;-67
2021/06/17 03:10:08;;;;;;;1.10;0.60;;;17.90;78.20;;;;;;5091784;28;20574;-69
2021/06/17 03:12:38;;;;;;;2.60;0.70;;;17.90;76.50;;;;;;5089229;28;20554;-70
2021/06/17 03:15:08;;;;;;;1.00;0.50;;;17.80;75.40;;;;;;5091720;28;20668;-68
2021/06/17 03:17:39;;;;;;;3.70;0.80;;;17.80;76.10;;;;;;5091631;28;20777;-67
2021/06/17 03:20:08;;;;;;;2.43;0.90;;;17.90;76.70;;;;;;5091958;28;20653;-71
2021/06/17 03:22:39;;;;;;;3.97;1.30;;;18.10;76.90;;;;;;5086318;28;20225;-70
2021/06/17 03:25:12;;;;;;;1.23;0.60;;;18.30;75.90;;;;;;5073176;28;20653;-67
2021/06/17 03:27:40;;;;;;;1.13;0.63;;;18.10;75.30;;;;;;5092582;28;20557;-72
2021/06/17 03:30:09;;;;;;;2.83;1.07;;;18.20;74.80;;;;;;5094634;28;20205;-71
2021/06/17 03:32:38;;;;;;;2.23;0.90;;;18.20;74.60;;;;;;5094882;28;20297;-68
2021/06/17 03:35:07;;;;;;;1.20;0.70;;;18.40;74.50;;;;;;5095017;28;20193;-70
2021/06/17 03:37:36;;;;;;;2.00;0.57;;;18.70;74.60;;;;;;5094794;28;20193;-71
2021/06/17 03:40:04;;;;;;;3.20;0.70;;;18.60;73.70;;;;;;5094991;28;20595;-72
2021/06/17 03:42:33;;;;;;;1.87;0.60;;;18.90;73.30;;;;;;5094607;28;20552;-72
2021/06/17 03:45:01;;;;;;;1.50;0.73;;;19.00;72.60;;;;;;5094742;28;20209;-70
2021/06/17 03:47:30;;;;;;;3.37;0.70;;;19.20;72.50;;;;;;5094737;28;20190;-75
2021/06/17 03:49:59;;;;;;;2.43;0.90;;;19.10;73.40;;;;;;5081368;28;20533;-72
2021/06/17 03:52:27;;;;;;;2.80;0.70;;;19.30;71.90;;;;;;5094125;28;20191;-71
2021/06/17 03:54:56;;;;;;;2.00;0.60;;;19.20;72.00;;;;;;5084439;28;20699;-69
2021/06/17 03:57:24;;;;;;;2.33;0.60;;;19.60;72.00;;;;;;5089697;28;20190;-66
2021/06/17 03:59:55;;;;;;;1.90;0.63;;;19.70;72.30;;;;;;5085803;28;20179;-68
2021/06/17 04:02:25;;;;;;;3.50;0.70;;;19.70;71.80;;;;;;5078987;28;20206;-66
2021/06/17 04:04:53;;;;;;;0.83;0.50;;;19.50;70.70;;;;;;5093980;28;20270;-67
2021/06/17 04:07:24;;;;;;;2.00;0.50;;;19.40;71.20;;;;;;5094372;28;20179;-65
2021/06/17 04:09:52;;;;;;;0.70;0.60;;;19.30;71.90;;;;;;5089849;28;20585;-72
2021/06/17 04:12:22;;;;;;;2.93;0.50;;;19.20;71.40;;;;;;5093442;28;20182;-71
2021/06/17 04:14:53;;;;;;;1.53;0.63;;;19.30;71.20;;;;;;5089017;28;20178;-73
2021/06/17 04:17:30;;;;;;;3.40;0.73;;;19.50;72.50;;;;;;5092920;28;20579;-74
2021/06/17 04:19:59;;;;;;;1.57;0.70;;;19.90;71.60;;;;;;5094363;28;20713;-68
2021/06/17 04:22:28;;;;;;;4.03;1.33;;;19.80;70.10;;;;;;5092039;28;20576;-71
2021/06/17 04:25:02;;;;;;;1.83;0.57;;;19.60;71.50;;;;;;5091451;28;20232;-69
2021/06/17 04:27:30;;;;;;;0.83;0.60;;;19.60;71.00;;;;;;5092039;28;20186;-69
2021/06/17 04:29:58;;;;;;;2.60;0.50;;;19.20;71.20;;;;;;5088293;28;20185;-69
2021/06/17 04:32:27;;;;;;;1.53;0.77;;;19.10;71.10;;;;;;5087755;28;21708;-71
2021/06/17 04:34:56;;;;;;;6.23;0.73;;;19.20;71.30;;;;;;5093713;28;20277;-67
2021/06/17 04:37:27;;;;;;;0.50;0.40;;;19.20;71.30;;;;;;5091255;28;20193;-72
2021/06/17 04:39:57;;;;;;;1.50;0.60;;;19.60;72.20;;;;;;5092748;28;20183;-69
2021/06/17 04:42:25;;;;;;;1.33;0.60;;;19.80;71.30;;;;;;5092249;28;20222;-67
2021/06/17 04:44:54;;;;;;;3.93;0.60;;;20.20;70.20;;;;;;5092945;28;20182;-71
2021/06/17 04:47:22;;;;;;;1.37;0.63;;;20.10;71.10;;;;;;5092784;28;20186;-70
2021/06/17 04:49:50;;;;;;;1.23;0.70;;;20.30;69.80;;;;;;5093014;28;20578;-67
2021/06/17 04:52:41;;;;;;;1.07;0.53;;;20.20;71.30;;;;;;5092404;28;20277;-72
2021/06/17 04:55:12;;;;;;;3.20;0.90;;;20.30;69.60;;;;;;5090460;28;20190;-72
2021/06/17 04:57:39;;;;;;;1.73;0.60;;;20.00;70.50;;;;;;5087011;28;20324;-69
2021/06/17 05:00:07;;;;;;;1.13;0.53;;;20.10;71.20;;;;;;5088265;28;20189;-70
2021/06/17 05:02:34;;;;;;;0.80;0.50;;;19.90;70.90;;;;;;5091293;28;20229;-69
2021/06/17 05:05:02;;;;;;;1.23;0.70;;;20.00;71.20;;;;;;5087486;28;20182;-75
2021/06/17 05:12:57;;;;;;;0.77;0.50;;;19.60;70.90;;;;;;5093515;28;20197;-68
2021/06/17 05:15:24;;;;;;;0.50;0.50;;;18.90;72.70;;;;;;5093179;28;20183;-65
2021/06/17 05:17:52;;;;;;;1.23;0.50;;;18.60;74.80;;;;;;5092995;28;20285;-68
2021/06/17 05:20:19;;;;;;;0.60;0.50;;;18.30;74.50;;;;;;5092969;28;20206;-70
2021/06/17 05:22:47;;;;;;;2.10;0.40;;;17.70;75.90;;;;;;5093165;28;20216;-69
2021/06/17 05:25:15;;;;;;;0.93;0.40;;;17.40;77.10;;;;;;5091992;28;20538;-72
2021/06/17 05:27:42;;;;;;;1.17;0.73;;;17.20;78.30;;;;;;5092999;28;20205;-71
2021/06/17 05:30:10;;;;;;;1.63;0.53;;;17.00;78.00;;;;;;5091898;28;20246;-71
2021/06/17 05:32:37;;;;;;;2.80;0.43;;;16.80;78.80;;;;;;5092242;28;20222;-68
2021/06/17 05:35:05;;;;;;;2.47;0.53;;;16.80;80.00;;;;;;5087191;28;20650;-72
2021/06/17 05:37:33;;;;;;;2.30;0.40;;;16.90;80.00;;;;;;5091873;28;20175;-72
2021/06/17 05:40:00;;;;;;;1.37;0.70;;;17.10;79.80;;;;;;5092524;28;20197;-67
2021/06/17 05:42:27;;;;;;;1.07;0.50;;;17.60;78.50;;;;;;5092276;28;20212;-71
2021/06/17 05:44:55;;;;;;;0.60;0.40;;;18.20;77.60;;;;;;5093243;28;20224;-74
2021/06/17 05:47:22;;;;;;;2.30;0.50;;;18.10;77.30;;;;;;5084749;28;20394;-72
2021/06/17 05:49:50;;;;;;;1.13;0.60;;;18.40;76.70;;;;;;5096811;28;20181;-71
2021/06/17 05:52:17;;;;;;;1.70;0.60;;;18.50;77.10;;;;;;5095907;28;20211;-71
2021/06/17 05:54:45;;;;;;;4.10;0.63;;;17.80;78.40;;;;;;5091678;28;20801;-69
2021/06/17 05:57:12;;;;;;;1.23;0.70;;;18.10;78.30;;;;;;5088797;28;20197;-69
2021/06/17 05:59:39;;;;;;;0.70;0.60;;;18.50;77.70;;;;;;5091707;28;20277;-67
2021/06/17 06:02:10;;;;;;;1.53;0.60;;;18.30;77.70;;;;;;5091092;28;20223;-70
2021/06/17 06:04:37;;;;;;;1.70;0.50;;;17.80;78.00;;;;;;5092316;28;20582;-67
2021/06/17 06:07:05;;;;;;;0.80;0.60;;;17.70;79.30;;;;;;5092271;28;20190;-71
2021/06/17 06:09:32;;;;;;;1.80;0.70;;;17.70;79.10;;;;;;5092544;28;20631;-69
2021/06/17 06:11:59;;;;;;;1.97;0.70;;;17.20;80.00;;;;;;5092529;28;20637;-72
2021/06/17 06:14:27;;;;;;;3.37;0.80;;;16.80;81.30;;;;;;5090864;28;20188;-69
2021/06/17 06:16:54;;;;;;;1.17;0.70;;;16.60;82.50;;;;;;5092342;28;20195;-68
2021/06/17 06:19:22;;;;;;;1.53;0.70;;;16.40;83.40;;;;;;5092276;28;20746;-69
2021/06/17 06:21:49;;;;;;;3.17;0.90;;;16.30;83.60;;;;;;5092425;28;20226;-68
2021/06/17 06:24:17;;;;;;;3.33;2.20;;;16.30;84.00;;;;;;5091879;28;20640;-70
2021/06/17 06:26:44;;;;;;;1.83;1.10;;;16.30;84.30;;;;;;5091730;28;20248;-68
2021/06/17 06:29:12;;;;;;;4.77;1.40;;;16.20;84.40;;;;;;5092415;28;20184;-70
2021/06/17 06:31:40;;;;;;;2.93;1.57;;;16.10;84.40;;;;;;5092406;28;20637;-69
2021/06/17 06:34:07;;;;;;;3.40;1.77;;;16.00;85.20;;;;;;5081731;28;20215;-74
2021/06/17 06:36:35;;;;;;;3.20;0.80;;;15.90;86.30;;;;;;5079572;28;20185;-68
2021/06/17 06:39:02;;;;;;;2.67;1.40;;;15.80;86.80;;;;;;5092234;28;20168;-76
2021/06/17 06:41:42;;;;;;;1.50;1.00;;;15.70;87.20;;;;;;5091904;28;20254;-72
2021/06/17 06:44:10;;;;;;;1.40;0.80;;;15.60;88.80;;;;;;5089938;28;20178;-72
2021/06/17 06:46:39;;;;;;;2.50;0.80;;;15.60;88.60;;;;;;5092130;28;20212;-70
2021/06/17 06:49:07;;;;;;;0.73;0.63;;;15.50;88.70;;;;;;5092085;28;20243;-71
2021/06/17 06:51:44;;;;;;;1.63;0.70;;;15.50;89.50;;;;;;5091559;28;20186;-73
2021/06/17 06:54:11;;;;;;;0.67;0.67;;;15.40;89.90;;;;;;5089008;28;20213;-71
2021/06/17 06:56:40;;;;;;;2.00;0.90;;;15.40;90.40;;;;;;5086119;28;20171;-70
2021/06/17 06:59:07;;;;;;;1.47;0.97;;;15.30;90.50;;;;;;5089237;28;20183;-69
2021/06/17 07:01:37;;;;;;;1.23;0.80;;;15.30;90.70;;;;;;5093328;28;20247;-72
2021/06/17 07:04:05;;;;;;;1.30;0.80;;;15.20;90.80;;;;;;5095294;28;20237;-71
2021/06/17 07:06:36;;;;;;;4.80;0.90;;;15.20;91.10;;;;;;5093099;28;20187;-65
2021/06/17 07:09:04;;;;;;;1.23;0.90;;;15.20;91.10;;;;;;5093094;28;20183;-70
2021/06/17 07:11:31;;;;;;;5.33;1.00;;;15.20;91.40;;;;;;5095311;28;20179;-72
2021/06/17 07:13:59;;;;;;;1.20;1.00;;;15.10;91.60;;;;;;5095490;28;20179;-71
2021/06/17 07:16:27;;;;;;;2.27;1.07;;;15.10;91.90;;;;;;5095209;28;20659;-73
2021/06/17 07:18:55;;;;;;;1.55;0.80;;;15.10;91.90;;;;;;5092882;28;20414;-77
2021/06/17 07:21:23;;;;;;;1.40;0.70;;;15.00;91.90;;;;;;5094997;28;20668;-71
2021/06/17 07:23:51;;;;;;;3.07;1.17;;;15.00;92.30;;;;;;5093302;28;20179;-73
2021/06/17 07:26:22;;;;;;;3.00;0.90;;;15.00;92.60;;;;;;5094212;28;20173;-72
2021/06/17 07:28:49;;;;;;;2.23;0.93;;;14.90;93.10;;;;;;5095538;28;20214;-74
2021/06/17 07:31:17;;;;;;;3.80;0.93;;;14.90;93.30;;;;;;5095540;28;20701;-72
2021/06/17 07:33:44;;;;;;;3.03;0.80;;;14.80;93.70;;;;;;5094787;28;20233;-73
2021/06/17 07:36:15;;;;;;;4.73;0.87;;;14.70;94.20;;;;;;5095158;28;20206;-73
2021/06/17 07:38:42;;;;;;;1.73;0.90;;;14.70;94.50;;;;;;5095051;28;20351;-69
2021/06/17 07:41:10;;;;;;;2.27;1.00;;;14.60;95.10;;;;;;5094760;28;20170;-70
2021/06/17 07:43:37;;;;;;;1.43;0.80;;;14.60;95.20;;;;;;5095026;28;20191;-70
2021/06/17 07:46:05;;;;;;;7.60;1.20;;;14.60;95.60;;;;;;5095316;28;20170;-72
2021/06/17 07:48:33;;;;;;;1.57;1.00;;;14.50;95.80;;;;;;5094681;28;20187;-70
2021/06/17 07:51:00;;;;;;;3.70;1.10;;;14.40;96.20;;;;;;5094403;28;20229;-68
2021/06/17 07:53:28;;;;;;;3.40;1.20;;;14.40;96.40;;;;;;5094542;28;20179;-68
2021/06/17 07:55:55;;;;;;;2.50;1.27;;;14.40;96.50;;;;;;5093953;28;20182;-67
2021/06/17 07:58:23;;;;;;;1.40;0.90;;;14.40;96.40;;;;;;5092352;28;20239;-66
2021/06/17 08:00:53;;;;;;;3.73;1.10;;;14.40;96.60;;;;;;5094914;28;20193;-70
2021/06/17 08:03:20;;;;;;;1.30;0.87;;;14.40;96.70;;;;;;5093821;28;20237;-70
2021/06/17 08:05:48;;;;;;;1.67;1.17;;;14.30;97.00;;;;;;5094768;28;20175;-72
2021/06/17 08:08:16;;;;;;;4.57;1.73;;;14.40;96.70;;;;;;5094185;28;20537;-71
2021/06/17 08:10:44;;;;;;;2.73;1.53;;;14.30;96.80;;;;;;5094028;28;20194;-68
2021/06/17 08:13:11;;;;;;;5.23;2.00;;;14.30;96.70;;;;;;5094666;28;20202;-68
2021/06/17 08:15:39;;;;;;;2.77;1.73;;;14.30;96.80;;;;;;5094812;28;20179;-70
2021/06/17 08:18:07;;;;;;;2.33;1.00;;;14.30;97.00;;;;;;5094565;28;20535;-70
2021/06/17 08:20:34;;;;;;;2.60;0.90;;;14.30;97.00;;;;;;5094661;28;20194;-72
2021/06/17 08:23:01;;;;;;;3.27;1.20;;;14.30;97.20;;;;;;5094000;28;20211;-69
2021/06/17 08:25:29;;;;;;;2.37;1.70;;;14.20;97.40;;;;;;5094624;28;20174;-71
2021/06/17 08:28:01;;;;;;;1.90;1.10;;;14.20;97.70;;;;;;5094081;28;20193;-69
2021/06/17 08:30:28;;;;;;;4.23;0.93;;;14.20;97.60;;;;;;5094518;28;20210;-69
2021/06/17 08:32:56;;;;;;;1.73;1.17;;;14.10;97.60;;;;;;5093961;28;20266;-71
2021/06/17 08:35:23;;;;;;;2.70;1.10;;;14.10;97.70;;;;;;5093065;28;20193;-71
2021/06/17 08:37:51;;;;;;;2.30;0.90;;;14.10;97.70;;;;;;5093993;28;20174;-66
2021/06/17 08:40:18;;;;;;;4.17;1.70;;;14.10;97.70;;;;;;5094077;28;20175;-68
2021/06/17 08:42:46;;;;;;;1.50;1.20;;;14.10;97.80;;;;;;5088569;28;20695;-68
2021/06/17 08:45:13;;;;;;;2.20;1.20;;;14.10;97.60;;;;;;5085293;28;20171;-66
2021/06/17 08:47:41;;;;;;;3.70;1.33;;;14.10;97.90;;;;;;5089769;28;20206;-67
2021/06/17 08:50:11;;;;;;;1.87;1.17;;;14.10;97.90;;;;;;5092776;28;20236;-65
2021/06/17 08:52:40;;;;;;;3.13;1.13;;;14.10;97.90;;;;;;5093691;28;20255;-66
2021/06/17 08:55:25;;;;;;;3.40;1.53;;;14.00;98.00;;;;;;5092940;28;20604;-64
2021/06/17 08:57:55;;;;;;;4.10;2.40;;;14.00;98.30;;;;;;5094148;28;20170;-65
2021/06/17 09:00:23;;;;;;;2.53;1.10;;;13.90;98.60;;;;;;5094061;28;20621;-67
2021/06/17 09:03:08;;;;;;;1.77;0.90;;;13.90;98.40;;;;;;5086355;28;20259;-70
2021/06/17 09:05:41;;;;;;;3.20;1.30;;;13.90;98.20;;;;;;5093931;28;20263;-67
2021/06/17 09:08:11;;;;;;;4.77;1.50;;;13.90;98.40;;;;;;5093778;28;20261;-66
2021/06/17 09:10:40;;;;;;;2.87;1.10;;;13.90;98.70;;;;;;5093855;28;20170;-70
2021/06/17 09:13:09;;;;;;;4.77;1.10;;;13.90;98.60;;;;;;5092093;28;20182;-68
2021/06/17 09:15:45;;;;;;;2.27;1.10;;;13.80;98.70;;;;;;5087834;28;20181;-71
2021/06/17 09:18:16;;;;;;;2.50;1.17;;;13.80;98.90;;;;;;5087304;28;20175;-67
2021/06/17 09:20:57;;;;;;;3.57;1.40;;;13.80;98.80;;;;;;5085478;28;20179;-69
2021/06/17 09:23:29;;;;;;;4.30;1.00;;;13.80;99.00;;;;;;5085743;28;20305;-68
2021/06/17 09:25:59;;;;;;;3.20;1.70;;;13.80;99.10;;;;;;5079349;28;20171;-71
2021/06/17 09:29:02;;;;;;;4.23;1.17;;;13.70;99.20;;;;;;5093105;28;20661;-71
2021/06/17 09:31:31;;;;;;;2.53;1.20;;;13.70;99.30;;;;;;5093150;28;20174;-66
2021/06/17 09:34:00;;;;;;;3.20;1.50;;;13.60;99.50;;;;;;5092715;28;20218;-65
2021/06/17 09:36:31;;;;;;;2.93;1.60;;;13.60;99.90;;;;;;5089748;28;20206;-69
2021/06/17 09:39:03;;;;;;;3.53;1.50;;;13.50;99.90;;;;;;5091178;28;20172;-68
2021/06/17 09:41:35;;;;;;;4.60;1.90;;;13.40;99.90;;;;;;5092629;28;20210;-65
2021/06/17 09:44:04;;;;;;;3.10;1.77;;;13.30;99.90;;;;;;5092443;28;20592;-65
2021/06/17 09:46:31;;;;;;;5.73;3.40;;;13.20;99.90;;;;;;5092400;28;20178;-71
2021/06/17 09:49:07;;;;;;;2.73;2.10;;;13.10;99.90;;;;;;5092540;28;20727;-66
2021/06/17 09:51:51;;;;;;;2.23;1.50;;;13.10;99.90;;;;;;5092796;28;20254;-68
2021/06/17 09:54:29;;;;;;;3.97;2.60;;;13.00;99.90;;;;;;5092214;28;20289;-66
2021/06/17 09:57:02;;;;;;;3.10;2.20;;;13.00;99.90;;;;;;5081292;28;20197;-69
2021/06/17 09:59:53;;;;;;;4.40;2.07;;;12.90;99.90;;;;;;5091801;28;20184;-66
2021/06/17 10:02:23;;;;;;;2.43;1.80;;;12.90;99.90;;;;;;5079179;28;20238;-66
2021/06/17 10:04:52;;;;;;;3.10;2.10;;;12.80;99.90;;;;;;5092298;28;20203;-65
2021/06/17 10:07:20;;;;;;;4.50;1.77;;;12.70;99.90;;;;;;5092167;28;20194;-66
2021/06/17 10:09:48;;;;;;;3.77;1.77;;;12.70;99.90;;;;;;5092399;28;20517;-69
2021/06/17 10:12:18;;;;;;;4.30;2.00;;;12.70;99.90;;;;;;5092788;28;20592;-66
2021/06/17 10:14:46;;;;;;;5.63;2.20;;;12.70;99.90;;;;;;5092585;28;20715;-66
2021/06/17 10:17:17;;;;;;;2.17;1.40;;;12.70;99.90;;;;;;5092526;28;20540;-68
2021/06/17 10:19:45;;;;;;;5.20;1.53;;;12.70;99.90;;;;;;5091130;28;20633;-68
2021/06/17 10:22:12;;;;;;;1.90;1.20;;;12.70;99.90;;;;;;5092091;28;20214;-67
2021/06/17 10:24:40;;;;;;;1.97;1.30;;;12.70;99.90;;;;;;5092037;28;20181;-66
2021/06/17 10:27:11;;;;;;;2.23;1.23;;;12.80;99.90;;;;;;5092288;28;20228;-68
2021/06/17 10:29:41;;;;;;;1.57;1.20;;;12.80;99.90;;;;;;5091238;28;20641;-66
2021/06/17 10:32:16;;;;;;;3.00;1.53;;;12.80;99.90;;;;;;5091901;28;20178;-66
2021/06/17 10:34:57;;;;;;;1.53;1.33;;;12.80;99.90;;;;;;5093588;28;20212;-71
2021/06/17 10:37:32;;;;;;;6.30;1.50;;;12.80;99.90;;;;;;5089163;28;20551;-66
2021/06/17 10:40:11;;;;;;;8.33;1.67;;;12.80;99.90;;;;;;5095874;28;20182;-66
2021/06/17 10:42:41;;;;;;;2.20;1.70;;;12.80;99.90;;;;;;5096216;28;20218;-66
2021/06/17 10:45:15;;;;;;;2.53;1.70;;;12.80;99.90;;;;;;5095975;28;20537;-65
2021/06/17 10:50:15;;;;;;;2.77;1.60;;;12.60;99.90;;;;;;5094008;28;20182;-65
2021/06/17 10:52:43;;;;;;;3.43;1.57;;;12.50;99.90;;;;;;5093696;28;20179;-67
2021/06/17 10:55:18;;;;;;;5.07;1.60;;;12.40;99.90;;;;;;5094525;28;20175;-66
2021/06/17 10:57:52;;;;;;;3.77;1.20;;;12.30;99.90;;;;;;5093658;28;20252;-65
2021/06/17 11:00:25;;;;;;;4.33;1.90;;;12.20;99.90;;;;;;5094809;28;20185;-68
2021/06/17 11:03:18;;;;;;;6.40;1.73;;;12.20;99.90;;;;;;5095599;28;20206;-67
2021/06/17 11:05:50;;;;;;;3.57;1.93;;;12.10;99.90;;;;;;5064759;28;20210;-65
2021/06/17 11:08:28;;;;;;;4.13;1.83;;;12.00;99.90;;;;;;5095530;28;20186;-68
2021/06/17 11:11:00;;;;;;;7.70;2.10;;;11.90;99.90;;;;;;5078959;28;20653;-66
2021/06/17 11:13:38;;;;;;;2.90;1.60;;;11.90;99.90;;;;;;5095108;28;20175;-65
2021/06/17 11:16:17;;;;;;;3.10;1.60;;;11.80;99.90;;;;;;5095828;28;20213;-65
2021/06/17 11:19:07;;;;;;;3.50;1.70;;;11.70;99.90;;;;;;5095961;28;20232;-67
2021/06/17 11:21:35;;;;;;;3.00;1.67;;;11.70;99.90;;;;;;5095997;28;20255;-69
2021/06/17 11:24:25;;;;;;;3.67;1.80;;;11.70;99.90;;;;;;5087219;28;20279;-66
2021/06/17 11:26:55;;;;;;;4.47;1.57;;;11.70;99.90;;;;;;5075545;28;20190;-65
2021/06/17 11:29:48;;;;;;;2.07;1.60;;;11.80;99.90;;;;;;5095627;28;20186;-67
2021/06/17 11:32:44;;;;;;;8.03;1.70;;;11.70;99.90;;;;;;5094964;28;20171;-66
2021/06/17 11:35:24;;;;;;;2.17;1.60;;;11.70;99.90;;;;;;5072811;28;20653;-66
2021/06/17 11:37:53;;;;;;;6.60;2.30;;;11.80;99.90;;;;;;5094305;28;20175;-66
2021/06/17 11:40:20;;;;;;;6.33;1.90;;;11.70;99.90;;;;;;5095203;28;20637;-65
2021/06/17 11:42:47;;;;;;;4.10;1.50;;;11.70;99.90;;;;;;5094084;28;20306;-67
2021/06/17 11:45:15;;;;;;;4.10;1.60;;;11.60;99.90;;;;;;5094369;28;20255;-67
2021/06/17 11:47:47;;;;;;;4.73;1.63;;;11.60;99.90;;;;;;5094644;28;20185;-65
2021/06/17 11:50:15;;;;;;;5.67;1.60;;;11.70;99.90;;;;;;5094740;28;20213;-66
2021/06/17 11:52:45;;;;;;;6.23;1.50;;;11.70;99.90;;;;;;5088851;28;20194;-68
2021/06/17 11:55:12;;;;;;;1.97;1.53;;;11.70;99.90;;;;;;5088837;28;20186;-68
2021/06/17 11:57:40;;;;;;;3.30;1.63;;;11.70;99.90;;;;;;5091384;28;20722;-67
2021/06/17 12:00:10;;;;;;;3.77;1.40;;;11.80;99.90;;;;;;5095441;28;20402;-70
2021/06/17 12:02:43;;;;;;;2.43;1.47;;;11.90;99.90;;;;;;5094537;28;20214;-70
2021/06/17 12:05:12;;;;;;;4.07;1.43;;;11.90;99.90;;;;;;5095614;28;20186;-74
2021/06/17 12:07:49;;;;;;;3.83;1.50;;;12.00;99.90;;;;;;5094696;28;20182;-71
2021/06/17 12:10:19;;;;;;;3.93;1.40;;;12.00;99.90;;;;;;5095272;28;20178;-74
2021/06/17 12:12:55;;;;;;;1.63;1.20;;;11.90;99.90;;;;;;5095115;28;20167;-74
2021/06/17 12:15:35;;;;;;;3.73;0.93;;;11.90;99.90;;;;;;5095197;28;20236;-77
2021/06/17 12:18:10;;;;;;;4.53;1.20;;;12.00;99.90;;;;;;5091640;28;20182;-75
2021/06/17 12:20:43;;;;;;;2.87;1.27;;;12.10;99.90;;;;;;5092675;28;20257;-71
2021/06/17 12:23:16;;;;;;;1.77;0.93;;;12.10;99.90;;;;;;5094502;28;20211;-70
2021/06/17 12:25:45;;;;;;;2.20;0.97;;;12.10;99.90;;;;;;5095177;28;20186;-69
2021/06/17 12:28:16;;;;;;;2.30;1.10;;;12.20;99.90;;;;;;5098244;28;20185;-76
2021/06/17 12:30:48;;;;;;;2.70;0.80;;;12.10;99.90;;;;;;5101633;28;20302;-70
2021/06/17 12:33:26;;;;;;;3.30;0.90;;;12.30;99.90;;;;;;5091287;28;20295;-70
2021/06/17 12:35:54;;;;;;;1.33;0.80;;;12.20;99.90;;;;;;5085883;28;20181;-70
2021/06/17 12:38:40;;;;;;;2.30;1.07;;;12.20;99.90;;;;;;5094050;28;20572;-71
2021/06/17 12:41:18;;;;;;;1.23;0.63;;;12.20;99.90;;;;;;5094622;28;20178;-74
2021/06/17 12:43:52;;;;;;;0.70;0.70;;;12.20;99.90;;;;;;5094012;28;20262;-67
2021/06/17 12:46:26;;;;;;;0.70;0.70;;;12.20;99.90;;;;;;5093598;28;20181;-73
2021/06/17 12:54:32;;;;;;;1.00;0.90;;;12.10;99.90;;;;;;5092283;28;20193;-68
2021/06/17 12:57:02;;;;;;;1.50;0.90;;;12.10;99.90;;;;;;5094059;28;20186;-66
2021/06/17 12:59:40;;;;;;;1.47;0.70;;;12.10;99.90;;;;;;5093118;28;20187;-67
2021/06/17 13:02:16;;;;;;;5.30;1.10;;;12.20;99.90;;;;;;5093734;28;20660;-66
2021/06/17 13:04:59;;;;;;;3.10;1.13;;;12.20;99.90;;;;;;5093134;28;20274;-67
2021/06/17 13:07:26;;;;;;;0.80;0.70;;;12.20;99.90;;;;;;5092773;28;20170;-71
2021/06/17 13:10:15;;;;;;;1.90;1.07;;;12.20;99.90;;;;;;5091967;28;20642;-73
2021/06/17 13:12:46;;;;;;;2.50;1.10;;;12.20;99.90;;;;;;5084813;28;20217;-66
2021/06/17 13:15:18;;;;;;;0.80;0.80;;;12.10;99.90;;;;;;5093842;28;20185;-66
2021/06/17 13:17:48;;;;;;;2.60;0.90;;;12.20;99.90;;;;;;5079411;28;20265;-67
2021/06/17 13:20:28;;;;;;;2.20;0.90;;;12.20;99.90;;;;;;5093768;28;20202;-67